sensor_id;sensor_type;location;lat;lon;timestamp;pressure;altitude;pressure_sealevel;temperature;humidity
33286;BME280;19656;50.096;20.014;2022-07-03T00:04:50;99626.75;;;19.28;59.06
33286;BME280;19656;50.096;20.014;2022-07-03T00:09:53;99616.02;;;19.35;59.35
33286;BME280;19656;50.096;20.014;2022-07-03T00:14:56;99611.79;;;19.43;59.31
33286;BME280;19656;50.096;20.014;2022-07-03T00:19:59;99613.87;;;19.57;59.46
33286;BME280;19656;50.096;20.014;2022-07-03T00:25:05;99610.58;;;19.64;59.42
33286;BME280;19656;50.096;20.014;2022-07-03T00:30:08;99605.14;;;19.73;59.47
33286;BME280;19656;50.096;20.014;2022-07-03T00:35:16;99601.66;;;19.75;59.34
33286;BME280;19656;50.096;20.014;2022-07-03T00:40:20;99608.71;;;19.72;59.24
33286;BME280;19656;50.096;20.014;2022-07-03T00:45:25;99594.70;;;19.58;59.04
33286;BME280;19656;50.096;20.014;2022-07-03T00:50:36;99593.17;;;19.54;59.20
33286;BME280;19656;50.096;20.014;2022-07-03T00:55:40;99587.34;;;19.54;59.33
33286;BME280;19656;50.096;20.014;2022-07-03T01:00:48;99582.11;;;19.56;59.13
33286;BME280;19656;50.096;20.014;2022-07-03T01:05:54;99575.86;;;19.44;58.85
33286;BME280;19656;50.096;20.014;2022-07-03T01:11:25;99576.94;;;19.40;59.09
33286;BME280;19656;50.096;20.014;2022-07-03T01:16:51;99565.43;;;19.38;59.17
33286;BME280;19656;50.096;20.014;2022-07-03T01:27:34;99561.48;;;19.14;58.98
33286;BME280;19656;50.096;20.014;2022-07-03T01:32:49;99555.66;;;18.98;58.98
33286;BME280;19656;50.096;20.014;2022-07-03T01:37:56;99556.09;;;18.98;59.25
33286;BME280;19656;50.096;20.014;2022-07-03T01:43:06;99561.23;;;19.00;59.38
33286;BME280;19656;50.096;20.014;2022-07-03T01:48:11;99558.19;;;19.04;59.49
33286;BME280;19656;50.096;20.014;2022-07-03T01:53:14;99551.54;;;19.02;59.55
33286;BME280;19656;50.096;20.014;2022-07-03T01:58:18;99551.80;;;19.07;59.77
33286;BME280;19656;50.096;20.014;2022-07-03T02:03:32;99556.93;;;19.12;59.93
33286;BME280;19656;50.096;20.014;2022-07-03T02:08:43;99557.52;;;19.13;59.91
33286;BME280;19656;50.096;20.014;2022-07-03T02:14:31;99550.36;;;19.13;60.11
33286;BME280;19656;50.096;20.014;2022-07-03T02:19:53;99552.75;;;19.17;60.07
33286;BME280;19656;50.096;20.014;2022-07-03T02:25:03;99542.21;;;19.20;60.07
33286;BME280;19656;50.096;20.014;2022-07-03T02:30:08;99540.59;;;19.26;60.17
33286;BME280;19656;50.096;20.014;2022-07-03T02:40:31;99540.60;;;19.30;60.21
33286;BME280;19656;50.096;20.014;2022-07-03T02:46:00;99537.65;;;19.34;60.06
33286;BME280;19656;50.096;20.014;2022-07-03T02:51:37;99535.35;;;19.30;60.10
33286;BME280;19656;50.096;20.014;2022-07-03T02:57:06;99531.56;;;19.29;60.19
33286;BME280;19656;50.096;20.014;2022-07-03T03:02:17;99529.84;;;19.32;59.99
33286;BME280;19656;50.096;20.014;2022-07-03T03:07:29;99525.47;;;19.32;60.26
33286;BME280;19656;50.096;20.014;2022-07-03T03:12:41;99531.02;;;19.36;60.16
33286;BME280;19656;50.096;20.014;2022-07-03T03:17:49;99530.64;;;19.36;60.40
33286;BME280;19656;50.096;20.014;2022-07-03T03:22:58;99530.52;;;19.38;60.51
33286;BME280;19656;50.096;20.014;2022-07-03T03:28:03;99531.30;;;19.37;60.74
33286;BME280;19656;50.096;20.014;2022-07-03T03:33:06;99531.04;;;19.38;60.73
33286;BME280;19656;50.096;20.014;2022-07-03T03:38:11;99529.53;;;19.39;60.69
33286;BME280;19656;50.096;20.014;2022-07-03T03:43:15;99529.13;;;19.45;60.89
33286;BME280;19656;50.096;20.014;2022-07-03T03:48:18;99528.83;;;19.56;61.11
33286;BME280;19656;50.096;20.014;2022-07-03T03:53:21;99525.52;;;19.73;61.22
33286;BME280;19656;50.096;20.014;2022-07-03T03:58:27;99520.36;;;19.78;61.03
33286;BME280;19656;50.096;20.014;2022-07-03T04:03:31;99518.69;;;19.81;60.94
33286;BME280;19656;50.096;20.014;2022-07-03T04:08:34;99514.28;;;19.83;60.98
33286;BME280;19656;50.096;20.014;2022-07-03T04:13:37;99521.35;;;19.79;60.87
33286;BME280;19656;50.096;20.014;2022-07-03T04:18:40;99522.84;;;19.87;61.10
33286;BME280;19656;50.096;20.014;2022-07-03T04:23:43;99526.17;;;19.95;61.05
33286;BME280;19656;50.096;20.014;2022-07-03T04:28:46;99527.96;;;20.03;61.30
33286;BME280;19656;50.096;20.014;2022-07-03T04:33:49;99526.26;;;20.21;61.34
33286;BME280;19656;50.096;20.014;2022-07-03T04:38:52;99523.97;;;20.26;61.05
33286;BME280;19656;50.096;20.014;2022-07-03T04:43:55;99519.05;;;20.29;61.02
33286;BME280;19656;50.096;20.014;2022-07-03T04:48:58;99520.84;;;20.31;61.01
33286;BME280;19656;50.096;20.014;2022-07-03T04:54:01;99516.08;;;20.32;61.09
33286;BME280;19656;50.096;20.014;2022-07-03T04:59:04;99505.23;;;20.36;61.02
33286;BME280;19656;50.096;20.014;2022-07-03T05:04:07;99509.48;;;20.54;61.19
33286;BME280;19656;50.096;20.014;2022-07-03T05:09:10;99506.35;;;20.92;62.35
33286;BME280;19656;50.096;20.014;2022-07-03T05:14:13;99496.53;;;21.40;61.59
33286;BME280;19656;50.096;20.014;2022-07-03T05:19:16;99489.77;;;21.54;60.92
33286;BME280;19656;50.096;20.014;2022-07-03T05:24:19;99476.00;;;21.72;61.00
33286;BME280;19656;50.096;20.014;2022-07-03T05:29:23;99477.16;;;21.91;60.81
33286;BME280;19656;50.096;20.014;2022-07-03T05:34:27;99479.14;;;22.09;60.40
33286;BME280;19656;50.096;20.014;2022-07-03T05:39:29;99483.98;;;22.16;59.95
33286;BME280;19656;50.096;20.014;2022-07-03T05:44:35;99485.65;;;22.12;59.51
33286;BME280;19656;50.096;20.014;2022-07-03T05:49:38;99489.88;;;22.20;59.82
33286;BME280;19656;50.096;20.014;2022-07-03T05:54:42;99487.55;;;22.50;59.99
33286;BME280;19656;50.096;20.014;2022-07-03T05:59:45;99482.85;;;22.60;59.33
33286;BME280;19656;50.096;20.014;2022-07-03T06:04:49;99492.98;;;22.70;58.98
33286;BME280;19656;50.096;20.014;2022-07-03T06:09:52;99494.93;;;22.78;59.04
33286;BME280;19656;50.096;20.014;2022-07-03T06:14:54;99499.44;;;22.78;58.56
33286;BME280;19656;50.096;20.014;2022-07-03T06:20:04;99495.09;;;22.83;58.66
33286;BME280;19656;50.096;20.014;2022-07-03T06:25:08;99492.95;;;22.95;58.43
33286;BME280;19656;50.096;20.014;2022-07-03T06:30:12;99495.10;;;23.04;58.39
33286;BME280;19656;50.096;20.014;2022-07-03T06:35:15;99491.84;;;23.14;58.20
33286;BME280;19656;50.096;20.014;2022-07-03T06:40:18;99491.30;;;23.25;58.24
33286;BME280;19656;50.096;20.014;2022-07-03T06:45:21;99487.41;;;23.43;58.11
33286;BME280;19656;50.096;20.014;2022-07-03T06:50:24;99480.29;;;23.64;57.89
33286;BME280;19656;50.096;20.014;2022-07-03T06:55:27;99476.20;;;23.81;57.59
33286;BME280;19656;50.096;20.014;2022-07-03T07:00:30;99474.89;;;23.78;56.92
33286;BME280;19656;50.096;20.014;2022-07-03T07:05:33;99475.88;;;23.82;56.81
33286;BME280;19656;50.096;20.014;2022-07-03T07:10:36;99468.63;;;23.81;56.58
33286;BME280;19656;50.096;20.014;2022-07-03T07:15:39;99460.20;;;23.88;56.50
33286;BME280;19656;50.096;20.014;2022-07-03T07:20:42;99452.95;;;23.90;56.14
33286;BME280;19656;50.096;20.014;2022-07-03T07:25:45;99447.42;;;23.87;55.92
33286;BME280;19656;50.096;20.014;2022-07-03T07:30:48;99444.24;;;24.01;56.01
33286;BME280;19656;50.096;20.014;2022-07-03T07:35:51;99440.84;;;24.14;55.72
33286;BME280;19656;50.096;20.014;2022-07-03T07:40:54;99439.60;;;24.18;55.64
33286;BME280;19656;50.096;20.014;2022-07-03T07:45:57;99440.17;;;24.24;55.22
33286;BME280;19656;50.096;20.014;2022-07-03T07:51:01;99438.33;;;24.26;55.13
33286;BME280;19656;50.096;20.014;2022-07-03T07:56:05;99432.27;;;24.30;54.90
33286;BME280;19656;50.096;20.014;2022-07-03T08:01:09;99427.58;;;24.30;54.72
33286;BME280;19656;50.096;20.014;2022-07-03T08:06:31;99427.55;;;24.28;54.64
33286;BME280;19656;50.096;20.014;2022-07-03T08:11:34;99422.18;;;24.38;54.72
33286;BME280;19656;50.096;20.014;2022-07-03T08:16:37;99417.86;;;24.37;54.39
33286;BME280;19656;50.096;20.014;2022-07-03T08:21:42;99417.58;;;24.33;54.37
33286;BME280;19656;50.096;20.014;2022-07-03T08:26:45;99423.02;;;24.32;54.07
33286;BME280;19656;50.096;20.014;2022-07-03T08:31:48;99421.23;;;24.36;54.18
33286;BME280;19656;50.096;20.014;2022-07-03T08:36:51;99421.52;;;24.55;54.11
33286;BME280;19656;50.096;20.014;2022-07-03T08:41:55;99414.59;;;24.61;53.87
33286;BME280;19656;50.096;20.014;2022-07-03T08:46:59;99412.76;;;24.66;53.83
33286;BME280;19656;50.096;20.014;2022-07-03T08:52:02;99411.77;;;24.83;53.74
33286;BME280;19656;50.096;20.014;2022-07-03T08:57:06;99414.20;;;25.01;53.62
33286;BME280;19656;50.096;20.014;2022-07-03T09:02:10;99405.91;;;25.14;53.84
33286;BME280;19656;50.096;20.014;2022-07-03T09:07:13;99401.92;;;25.13;52.95
33286;BME280;19656;50.096;20.014;2022-07-03T09:12:17;99398.02;;;25.02;52.76
33286;BME280;19656;50.096;20.014;2022-07-03T09:17:21;99394.61;;;25.08;53.03
33286;BME280;19656;50.096;20.014;2022-07-03T09:22:26;99386.99;;;25.16;52.84
33286;BME280;19656;50.096;20.014;2022-07-03T09:27:29;99385.49;;;25.22;52.84
33286;BME280;19656;50.096;20.014;2022-07-03T09:32:40;99382.56;;;25.32;52.53
33286;BME280;19656;50.096;20.014;2022-07-03T09:43:04;99376.60;;;25.58;52.48
33286;BME280;19656;50.096;20.014;2022-07-03T09:48:30;99374.39;;;25.66;52.16
33286;BME280;19656;50.096;20.014;2022-07-03T09:59:07;99376.80;;;25.55;51.71
33286;BME280;19656;50.096;20.014;2022-07-03T10:04:18;99370.17;;;25.45;51.56
33286;BME280;19656;50.096;20.014;2022-07-03T10:09:26;99369.97;;;25.45;51.74
33286;BME280;19656;50.096;20.014;2022-07-03T10:14:31;99362.36;;;25.42;51.73
33286;BME280;19656;50.096;20.014;2022-07-03T10:19:39;99362.30;;;25.41;51.68
33286;BME280;19656;50.096;20.014;2022-07-03T10:24:42;99360.73;;;25.46;51.75
33286;BME280;19656;50.096;20.014;2022-07-03T10:29:46;99348.29;;;25.65;51.69
33286;BME280;19656;50.096;20.014;2022-07-03T10:34:49;99341.66;;;25.95;51.03
33286;BME280;19656;50.096;20.014;2022-07-03T10:40:05;99340.31;;;26.15;50.41
33286;BME280;19656;50.096;20.014;2022-07-03T10:45:28;99334.23;;;26.33;50.06
33286;BME280;19656;50.096;20.014;2022-07-03T10:50:31;99329.21;;;26.52;49.94
33286;BME280;19656;50.096;20.014;2022-07-03T10:56:01;99325.39;;;26.69;49.53
33286;BME280;19656;50.096;20.014;2022-07-03T11:01:06;99312.71;;;26.81;48.98
33286;BME280;19656;50.096;20.014;2022-07-03T11:06:11;99303.51;;;27.08;48.59
33286;BME280;19656;50.096;20.014;2022-07-03T11:11:33;99289.05;;;27.33;48.49
33286;BME280;19656;50.096;20.014;2022-07-03T11:17:19;99284.05;;;27.55;47.91
33286;BME280;19656;50.096;20.014;2022-07-03T11:22:25;99283.92;;;27.68;47.44
33286;BME280;19656;50.096;20.014;2022-07-03T11:27:34;99284.54;;;27.75;47.16
33286;BME280;19656;50.096;20.014;2022-07-03T11:32:53;99277.84;;;27.78;46.88
33286;BME280;19656;50.096;20.014;2022-07-03T11:38:00;99275.11;;;27.79;46.84
33286;BME280;19656;50.096;20.014;2022-07-03T11:43:05;99274.22;;;28.05;46.65
33286;BME280;19656;50.096;20.014;2022-07-03T11:48:10;99271.58;;;28.16;46.16
33286;BME280;19656;50.096;20.014;2022-07-03T11:53:35;99270.95;;;28.32;46.09
33286;BME280;19656;50.096;20.014;2022-07-03T11:58:44;99269.58;;;28.54;45.55
33286;BME280;19656;50.096;20.014;2022-07-03T12:03:48;99267.75;;;28.78;45.07
33286;BME280;19656;50.096;20.014;2022-07-03T12:08:52;99259.34;;;28.99;44.82
33286;BME280;19656;50.096;20.014;2022-07-03T12:13:55;99256.37;;;29.29;44.54
33286;BME280;19656;50.096;20.014;2022-07-03T12:19:03;99246.20;;;29.49;44.05
33286;BME280;19656;50.096;20.014;2022-07-03T12:24:13;99236.77;;;29.70;43.83
33286;BME280;19656;50.096;20.014;2022-07-03T12:29:17;99231.63;;;29.88;43.39
33286;BME280;19656;50.096;20.014;2022-07-03T12:34:20;99224.27;;;29.95;43.60
33286;BME280;19656;50.096;20.014;2022-07-03T12:39:39;99214.16;;;29.97;42.78
33286;BME280;19656;50.096;20.014;2022-07-03T12:44:57;99211.02;;;30.17;43.49
33286;BME280;19656;50.096;20.014;2022-07-03T12:50:03;99207.05;;;30.34;43.01
33286;BME280;19656;50.096;20.014;2022-07-03T12:55:25;99207.44;;;30.52;42.60
33286;BME280;19656;50.096;20.014;2022-07-03T13:00:28;99209.06;;;30.71;42.10
33286;BME280;19656;50.096;20.014;2022-07-03T13:05:31;99202.13;;;30.90;42.04
33286;BME280;19656;50.096;20.014;2022-07-03T13:10:34;99188.70;;;31.04;41.68
33286;BME280;19656;50.096;20.014;2022-07-03T13:15:37;99188.71;;;31.08;41.28
33286;BME280;19656;50.096;20.014;2022-07-03T13:20:40;99181.50;;;31.15;40.85
33286;BME280;19656;50.096;20.014;2022-07-03T13:25:43;99180.80;;;31.15;40.63
33286;BME280;19656;50.096;20.014;2022-07-03T13:30:46;99175.77;;;31.13;40.23
33286;BME280;19656;50.096;20.014;2022-07-03T13:35:49;99171.11;;;31.23;40.28
33286;BME280;19656;50.096;20.014;2022-07-03T13:40:52;99165.73;;;31.28;39.91
33286;BME280;19656;50.096;20.014;2022-07-03T13:45:56;99162.21;;;31.44;40.01
33286;BME280;19656;50.096;20.014;2022-07-03T13:50:59;99158.67;;;31.65;39.68
33286;BME280;19656;50.096;20.014;2022-07-03T13:56:02;99154.16;;;31.80;39.58
33286;BME280;19656;50.096;20.014;2022-07-03T14:01:14;99151.91;;;31.98;38.93
33286;BME280;19656;50.096;20.014;2022-07-03T14:06:17;99146.55;;;32.11;38.65
33286;BME280;19656;50.096;20.014;2022-07-03T14:11:20;99137.06;;;32.20;38.22
33286;BME280;19656;50.096;20.014;2022-07-03T14:16:26;99141.75;;;32.33;37.87
33286;BME280;19656;50.096;20.014;2022-07-03T14:21:29;99126.53;;;32.28;38.07
33286;BME280;19656;50.096;20.014;2022-07-03T14:26:32;99120.27;;;32.24;37.88
33286;BME280;19656;50.096;20.014;2022-07-03T14:31:54;99125.33;;;32.31;37.87
33286;BME280;19656;50.096;20.014;2022-07-03T14:37:16;99121.63;;;32.23;37.63
33286;BME280;19656;50.096;20.014;2022-07-03T14:42:21;99114.17;;;32.13;36.89
33286;BME280;19656;50.096;20.014;2022-07-03T14:47:25;99117.31;;;31.95;36.80
33286;BME280;19656;50.096;20.014;2022-07-03T14:52:28;99112.45;;;31.72;36.38
33286;BME280;19656;50.096;20.014;2022-07-03T14:57:38;99114.13;;;31.48;36.22
33286;BME280;19656;50.096;20.014;2022-07-03T15:08:14;99110.18;;;30.86;36.33
33286;BME280;19656;50.096;20.014;2022-07-03T15:13:18;99101.04;;;30.61;36.65
33286;BME280;19656;50.096;20.014;2022-07-03T15:18:21;99106.27;;;30.23;36.93
33286;BME280;19656;50.096;20.014;2022-07-03T15:23:25;99096.52;;;29.84;37.29
33286;BME280;19656;50.096;20.014;2022-07-03T15:28:29;99097.09;;;29.50;37.47
33286;BME280;19656;50.096;20.014;2022-07-03T15:33:32;99092.67;;;29.31;37.95
33286;BME280;19656;50.096;20.014;2022-07-03T15:38:39;99090.60;;;29.30;38.17
33286;BME280;19656;50.096;20.014;2022-07-03T15:44:12;99093.71;;;29.33;38.17
33286;BME280;19656;50.096;20.014;2022-07-03T15:49:28;99094.42;;;29.33;38.19
33286;BME280;19656;50.096;20.014;2022-07-03T15:54:44;99090.02;;;29.32;38.42
33286;BME280;19656;50.096;20.014;2022-07-03T15:59:57;99088.11;;;29.28;38.24
33286;BME280;19656;50.096;20.014;2022-07-03T16:05:08;99089.77;;;29.20;38.49
33286;BME280;19656;50.096;20.014;2022-07-03T16:10:12;99089.13;;;29.07;38.69
33286;BME280;19656;50.096;20.014;2022-07-03T16:15:16;99079.89;;;28.94;38.87
33286;BME280;19656;50.096;20.014;2022-07-03T16:20:19;99077.66;;;28.84;38.95
33286;BME280;19656;50.096;20.014;2022-07-03T16:25:23;99076.20;;;28.64;39.07
33286;BME280;19656;50.096;20.014;2022-07-03T16:30:27;99071.10;;;28.57;39.25
33286;BME280;19656;50.096;20.014;2022-07-03T16:35:36;99072.07;;;28.47;39.29
33286;BME280;19656;50.096;20.014;2022-07-03T16:40:40;99071.80;;;28.37;39.39
33286;BME280;19656;50.096;20.014;2022-07-03T16:45:44;99069.23;;;28.24;39.48
33286;BME280;19656;50.096;20.014;2022-07-03T16:50:51;99066.61;;;28.15;39.70
33286;BME280;19656;50.096;20.014;2022-07-03T16:55:55;99061.04;;;28.05;39.76
33286;BME280;19656;50.096;20.014;2022-07-03T17:01:04;99062.49;;;27.97;39.97
33286;BME280;19656;50.096;20.014;2022-07-03T17:06:08;99063.84;;;27.92;40.26
33286;BME280;19656;50.096;20.014;2022-07-03T17:11:13;99069.29;;;27.90;40.31
33286;BME280;19656;50.096;20.014;2022-07-03T17:16:18;99064.42;;;27.82;40.37
33286;BME280;19656;50.096;20.014;2022-07-03T17:21:30;99063.34;;;27.82;40.23
33286;BME280;19656;50.096;20.014;2022-07-03T17:26:41;99070.14;;;27.72;40.38
33286;BME280;19656;50.096;20.014;2022-07-03T17:31:45;99074.27;;;27.65;40.35
33286;BME280;19656;50.096;20.014;2022-07-03T17:36:51;99065.16;;;27.59;40.63
33286;BME280;19656;50.096;20.014;2022-07-03T17:41:55;99065.88;;;27.52;40.60
33286;BME280;19656;50.096;20.014;2022-07-03T17:46:58;99067.25;;;27.48;40.69
33286;BME280;19656;50.096;20.014;2022-07-03T17:52:05;99075.44;;;27.43;40.77
33286;BME280;19656;50.096;20.014;2022-07-03T17:57:08;99078.61;;;27.39;40.91
33286;BME280;19656;50.096;20.014;2022-07-03T18:02:30;99083.90;;;27.44;40.82
33286;BME280;19656;50.096;20.014;2022-07-03T18:13:16;99090.17;;;27.39;40.94
33286;BME280;19656;50.096;20.014;2022-07-03T18:18:33;99088.87;;;27.31;41.00
33286;BME280;19656;50.096;20.014;2022-07-03T18:23:38;99096.93;;;27.28;41.06
33286;BME280;19656;50.096;20.014;2022-07-03T18:28:44;99093.56;;;27.22;41.30
33286;BME280;19656;50.096;20.014;2022-07-03T18:33:49;99095.17;;;27.17;41.29
33286;BME280;19656;50.096;20.014;2022-07-03T18:38:52;99095.69;;;27.12;41.55
33286;BME280;19656;50.096;20.014;2022-07-03T18:43:57;99093.30;;;27.04;41.38
33286;BME280;19656;50.096;20.014;2022-07-03T18:49:00;99095.63;;;27.00;41.42
33286;BME280;19656;50.096;20.014;2022-07-03T19:09:51;99115.28;;;26.82;41.59
33286;BME280;19656;50.096;20.014;2022-07-03T19:15:00;99118.84;;;26.71;41.80
33286;BME280;19656;50.096;20.014;2022-07-03T19:20:05;99123.44;;;26.64;41.95
33286;BME280;19656;50.096;20.014;2022-07-03T19:25:10;99121.67;;;26.54;41.86
33286;BME280;19656;50.096;20.014;2022-07-03T19:30:15;99126.73;;;26.45;42.07
33286;BME280;19656;50.096;20.014;2022-07-03T19:35:18;99133.88;;;26.32;42.04
33286;BME280;19656;50.096;20.014;2022-07-03T19:40:22;99141.27;;;26.22;42.20
33286;BME280;19656;50.096;20.014;2022-07-03T19:45:25;99151.77;;;26.11;42.32
33286;BME280;19656;50.096;20.014;2022-07-03T19:50:28;99156.73;;;26.01;42.63
33286;BME280;19656;50.096;20.014;2022-07-03T19:55:31;99154.73;;;25.85;42.73
33286;BME280;19656;50.096;20.014;2022-07-03T20:00:35;99147.16;;;25.66;42.96
33286;BME280;19656;50.096;20.014;2022-07-03T20:05:39;99152.89;;;25.54;43.41
33286;BME280;19656;50.096;20.014;2022-07-03T20:10:42;99158.11;;;25.45;43.76
33286;BME280;19656;50.096;20.014;2022-07-03T20:15:45;99155.10;;;25.34;44.24
33286;BME280;19656;50.096;20.014;2022-07-03T20:20:48;99154.11;;;25.26;44.39
33286;BME280;19656;50.096;20.014;2022-07-03T20:25:51;99163.73;;;25.17;44.70
33286;BME280;19656;50.096;20.014;2022-07-03T20:30:59;99160.42;;;25.06;45.12
33286;BME280;19656;50.096;20.014;2022-07-03T20:36:02;99168.19;;;24.99;45.32
33286;BME280;19656;50.096;20.014;2022-07-03T20:41:07;99169.77;;;24.91;45.45
33286;BME280;19656;50.096;20.014;2022-07-03T20:46:11;99175.77;;;24.78;45.84
33286;BME280;19656;50.096;20.014;2022-07-03T20:51:14;99177.23;;;24.69;46.03
33286;BME280;19656;50.096;20.014;2022-07-03T20:56:20;99177.14;;;24.60;46.29
33286;BME280;19656;50.096;20.014;2022-07-03T21:01:28;99182.73;;;24.52;46.64
33286;BME280;19656;50.096;20.014;2022-07-03T21:06:31;99186.11;;;24.53;46.94
33286;BME280;19656;50.096;20.014;2022-07-03T21:11:36;99181.73;;;24.51;47.11
33286;BME280;19656;50.096;20.014;2022-07-03T21:16:42;99179.48;;;24.46;47.29
33286;BME280;19656;50.096;20.014;2022-07-03T21:21:46;99173.66;;;24.35;47.43
33286;BME280;19656;50.096;20.014;2022-07-03T21:26:52;99179.93;;;24.24;47.65
33286;BME280;19656;50.096;20.014;2022-07-03T21:31:55;99180.95;;;24.14;47.90
33286;BME280;19656;50.096;20.014;2022-07-03T21:36:59;99185.19;;;24.09;48.16
33286;BME280;19656;50.096;20.014;2022-07-03T21:42:05;99183.55;;;24.00;48.21
33286;BME280;19656;50.096;20.014;2022-07-03T21:47:08;99176.27;;;23.91;48.40
33286;BME280;19656;50.096;20.014;2022-07-03T21:52:11;99178.81;;;23.81;48.69
33286;BME280;19656;50.096;20.014;2022-07-03T21:57:14;99178.41;;;23.75;48.76
33286;BME280;19656;50.096;20.014;2022-07-03T22:02:21;99172.77;;;23.68;48.98
33286;BME280;19656;50.096;20.014;2022-07-03T22:07:24;99179.13;;;23.61;49.05
33286;BME280;19656;50.096;20.014;2022-07-03T22:12:27;99178.14;;;23.52;49.28
33286;BME280;19656;50.096;20.014;2022-07-03T22:17:45;99184.11;;;23.43;49.53
33286;BME280;19656;50.096;20.014;2022-07-03T22:22:48;99178.05;;;23.32;49.80
33286;BME280;19656;50.096;20.014;2022-07-03T22:27:52;99181.79;;;23.27;49.88
33286;BME280;19656;50.096;20.014;2022-07-03T22:32:55;99178.02;;;23.20;50.14
33286;BME280;19656;50.096;20.014;2022-07-03T22:37:58;99173.54;;;23.17;50.34
33286;BME280;19656;50.096;20.014;2022-07-03T22:43:01;99162.88;;;23.11;50.48
33286;BME280;19656;50.096;20.014;2022-07-03T22:48:04;99158.55;;;23.04;50.61
33286;BME280;19656;50.096;20.014;2022-07-03T22:53:07;99151.84;;;22.96;50.75
33286;BME280;19656;50.096;20.014;2022-07-03T22:58:12;99156.40;;;22.91;50.95
33286;BME280;19656;50.096;20.014;2022-07-03T23:03:15;99163.09;;;22.86;51.16
33286;BME280;19656;50.096;20.014;2022-07-03T23:08:18;99161.73;;;22.82;51.35
33286;BME280;19656;50.096;20.014;2022-07-03T23:13:21;99155.13;;;22.76;51.48
33286;BME280;19656;50.096;20.014;2022-07-03T23:18:24;99150.65;;;22.71;51.63
33286;BME280;19656;50.096;20.014;2022-07-03T23:23:27;99144.98;;;22.62;51.73
33286;BME280;19656;50.096;20.014;2022-07-03T23:28:30;99140.08;;;22.59;51.95
33286;BME280;19656;50.096;20.014;2022-07-03T23:33:33;99133.14;;;22.54;52.11
33286;BME280;19656;50.096;20.014;2022-07-03T23:38:36;99135.23;;;22.49;52.14
33286;BME280;19656;50.096;20.014;2022-07-03T23:43:39;99131.05;;;22.42;52.38
33286;BME280;19656;50.096;20.014;2022-07-03T23:48:42;99127.52;;;22.35;52.30
33286;BME280;19656;50.096;20.014;2022-07-03T23:54:03;99123.35;;;22.29;52.67
33286;BME280;19656;50.096;20.014;2022-07-03T23:59:06;99124.50;;;22.26;52.82
